Time;durP1;ratioP1;P1;durP2;ratioP2;P2;SDS_P1;SDS_P2;PMS_P1;PMS_P2;Temp;Humidity;BMP_temperature;BMP_pressure;BME280_temperature;BME280_humidity;BME280_pressure;Samples;Min_cycle;Max_cycle;Signal;HPM_P1;HPM_P2
2022/06/27 00:01:50;;;;;;;427.33;380.55;;;;;;;19.12;100.00;99181.66;5094951;28;20189;-82
2022/06/27 00:04:17;;;;;;;420.38;362.02;;;;;;;19.43;100.00;99186.75;5094491;28;20275;-82
2022/06/27 00:06:43;;;;;;;410.60;354.20;;;;;;;19.43;100.00;99175.84;5094371;28;20282;-83
2022/06/27 00:09:10;;;;;;;421.77;374.15;;;;;;;19.35;100.00;99168.41;5094066;28;20210;-81
2022/06/27 00:11:38;;;;;;;430.00;383.23;;;;;;;19.36;100.00;99168.25;5094508;28;20275;-83
2022/06/27 00:14:05;;;;;;;419.80;372.85;;;;;;;19.32;100.00;99172.31;5094453;28;20327;-82
2022/06/27 00:16:31;;;;;;;422.20;372.55;;;;;;;19.29;100.00;99171.78;5094988;28;20276;-83
2022/06/27 00:18:58;;;;;;;414.02;363.48;;;;;;;19.15;100.00;99154.06;5095096;28;20536;-83
2022/06/27 00:21:25;;;;;;;417.33;366.48;;;;;;;19.17;100.00;99157.47;5094921;28;20199;-83
2022/06/27 00:23:51;;;;;;;414.80;365.58;;;;;;;19.22;100.00;99148.81;5095108;28;20245;-83
2022/06/27 00:26:18;;;;;;;417.63;363.33;;;;;;;19.28;100.00;99157.25;5094908;28;20220;-83
2022/06/27 00:28:46;;;;;;;434.15;387.60;;;;;;;19.29;100.00;99149.94;5095518;28;20216;-83
2022/06/27 00:31:13;;;;;;;415.10;359.70;;;;;;;19.51;100.00;99164.97;5095168;28;20237;-83
2022/06/27 00:33:39;;;;;;;415.98;351.88;;;;;;;19.83;100.00;99161.72;5095089;28;20239;-83
2022/06/27 00:36:06;;;;;;;416.88;367.15;;;;;;;19.82;100.00;99161.88;5095156;28;20214;-84
2022/06/27 00:38:33;;;;;;;417.15;368.80;;;;;;;19.71;100.00;99166.53;5095071;28;20194;-83
2022/06/27 00:41:00;;;;;;;412.00;357.67;;;;;;;19.24;100.00;99194.06;5095441;28;20180;-83
2022/06/27 00:43:26;;;;;;;413.30;352.90;;;;;;;19.23;100.00;99197.81;5095045;28;20299;-82
2022/06/27 00:45:54;;;;;;;411.88;348.63;;;;;;;19.05;100.00;99213.31;5094423;28;20662;-82
2022/06/27 00:48:21;;;;;;;412.02;350.50;;;;;;;18.96;100.00;99231.44;5074048;28;20623;-83
2022/06/27 00:50:48;;;;;;;414.23;358.88;;;;;;;18.92;100.00;99241.78;5074646;28;20272;-83
2022/06/27 00:53:16;;;;;;;412.50;343.05;;;;;;;18.94;100.00;99245.22;5094516;28;20290;-83
2022/06/27 00:55:43;;;;;;;414.80;355.25;;;;;;;18.92;100.00;99247.25;5094413;28;20323;-83
2022/06/27 00:58:09;;;;;;;416.08;361.70;;;;;;;18.97;100.00;99235.88;5094513;28;20190;-83
2022/06/27 01:00:37;;;;;;;410.88;340.15;;;;;;;18.90;100.00;99232.91;5094111;28;20234;-83
2022/06/27 01:03:05;;;;;;;413.77;361.52;;;;;;;19.11;100.00;99248.16;5095186;28;20274;-83
2022/06/27 01:05:32;;;;;;;411.50;346.80;;;;;;;18.98;100.00;99255.84;5094534;28;20184;-83
2022/06/27 01:07:59;;;;;;;414.40;350.20;;;;;;;18.96;100.00;99256.00;5094292;28;20194;-83
2022/06/27 01:10:25;;;;;;;417.25;365.35;;;;;;;19.01;100.00;99252.81;5094496;28;20198;-83
2022/06/27 01:12:52;;;;;;;417.00;365.38;;;;;;;18.99;100.00;99265.75;5094292;28;20184;-83
2022/06/27 01:15:20;;;;;;;418.83;367.13;;;;;;;19.30;100.00;99286.25;5093800;28;20238;-82
2022/06/27 01:17:47;;;;;;;415.45;348.90;;;;;;;19.21;100.00;99283.59;5094031;28;20215;-82
2022/06/27 01:20:15;;;;;;;421.55;373.65;;;;;;;19.26;100.00;99286.72;5093784;28;20233;-83
2022/06/27 01:22:43;;;;;;;418.48;366.63;;;;;;;19.36;100.00;99271.16;5093436;28;20271;-83
2022/06/27 01:25:13;;;;;;;410.50;345.10;;;;;;;19.29;100.00;99268.16;5093681;28;20256;-83
2022/06/27 01:27:40;;;;;;;412.67;344.48;;;;;;;19.16;100.00;99259.47;5094144;28;20311;-82
2022/06/27 01:30:08;;;;;;;417.45;368.05;;;;;;;19.06;100.00;99240.44;5093990;28;20255;-83
2022/06/27 01:32:36;;;;;;;422.25;375.10;;;;;;;18.85;100.00;99216.13;5093353;28;20271;-82
2022/06/27 01:35:04;;;;;;;417.98;368.13;;;;;;;18.69;100.00;99211.28;5092881;28;20626;-83
2022/06/27 01:37:31;;;;;;;417.88;369.55;;;;;;;18.78;100.00;99222.34;5093392;28;20204;-82
2022/06/27 01:40:00;;;;;;;410.80;356.42;;;;;;;18.78;100.00;99225.06;5094290;28;20216;-83
2022/06/27 01:42:27;;;;;;;415.40;362.08;;;;;;;18.97;100.00;99200.41;5094458;28;20206;-82
2022/06/27 01:44:54;;;;;;;412.23;340.88;;;;;;;18.77;100.00;99172.41;5094148;28;20725;-82
2022/06/27 01:47:21;;;;;;;412.10;324.08;;;;;;;18.72;100.00;99174.69;5093845;28;20241;-82
2022/06/27 01:49:48;;;;;;;417.45;358.85;;;;;;;18.98;100.00;99195.84;5093724;28;20246;-82
2022/06/27 01:52:17;;;;;;;406.17;326.63;;;;;;;18.92;100.00;99203.59;5094071;28;20190;-82
2022/06/27 01:54:44;;;;;;;416.33;348.02;;;;;;;18.89;100.00;99214.81;5094081;28;20664;-82
2022/06/27 01:57:16;;;;;;;416.27;335.83;;;;;;;18.83;100.00;99229.06;5094445;28;20184;-81
2022/06/27 01:59:44;;;;;;;427.63;362.35;;;;;;;18.72;100.00;99215.56;5093573;28;20184;-82
2022/06/27 02:02:10;;;;;;;414.23;347.50;;;;;;;18.84;100.00;99184.41;5093966;28;20204;-82
2022/06/27 02:04:38;;;;;;;414.27;340.23;;;;;;;18.77;100.00;99183.31;5092234;28;20280;-83
2022/06/27 02:07:06;;;;;;;416.73;358.65;;;;;;;18.86;100.00;99174.22;5095523;28;20271;-83
2022/06/27 02:09:32;;;;;;;419.77;358.33;;;;;;;18.93;100.00;99166.28;5094459;28;20314;-82
2022/06/27 02:12:18;;;;;;;412.50;342.55;;;;;;;18.89;100.00;99183.97;5093024;28;20208;-83
2022/06/27 02:14:46;;;;;;;419.95;344.02;;;;;;;18.81;100.00;99190.16;5091050;28;20222;-82
2022/06/27 02:17:13;;;;;;;411.98;344.50;;;;;;;18.87;100.00;99191.44;5093020;28;20556;-82
2022/06/27 02:19:40;;;;;;;413.67;349.00;;;;;;;18.95;100.00;99205.19;5092807;28;20184;-83
2022/06/27 02:22:07;;;;;;;408.70;329.77;;;;;;;19.25;100.00;99214.91;5092450;28;20192;-83
2022/06/27 02:24:33;;;;;;;411.88;340.17;;;;;;;19.28;100.00;99225.50;5092051;28;20282;-82
2022/06/27 02:27:01;;;;;;;418.38;361.30;;;;;;;19.00;100.00;99229.28;5090824;28;20386;-82
2022/06/27 02:29:27;;;;;;;416.08;357.92;;;;;;;18.79;100.00;99234.97;5091712;28;20394;-82
2022/06/27 02:31:55;;;;;;;414.27;337.35;;;;;;;18.64;100.00;99254.53;5092227;28;20281;-82
2022/06/27 02:34:22;;;;;;;417.27;344.45;;;;;;;18.63;100.00;99276.47;5092216;28;20279;-82
2022/06/27 02:36:49;;;;;;;413.48;332.67;;;;;;;18.64;100.00;99275.47;5092258;28;20231;-82
2022/06/27 02:39:19;;;;;;;424.67;359.95;;;;;;;18.63;100.00;99290.09;5091956;28;20223;-82
2022/06/27 02:41:47;;;;;;;408.75;328.88;;;;;;;18.67;100.00;99292.38;5091974;28;20188;-82
2022/06/27 02:44:15;;;;;;;408.75;331.25;;;;;;;18.63;100.00;99274.63;5092046;28;20268;-83
2022/06/27 02:46:42;;;;;;;416.85;346.08;;;;;;;18.59;100.00;99255.97;5092083;28;20280;-82
2022/06/27 02:49:12;;;;;;;426.48;346.33;;;;;;;18.58;100.00;99246.06;5091764;28;20211;-83
2022/06/27 02:51:43;;;;;;;418.95;349.05;;;;;;;18.66;100.00;99248.94;5092276;28;20230;-82
2022/06/27 02:54:12;;;;;;;408.23;318.00;;;;;;;18.61;100.00;99259.41;5091880;28;20188;-82
2022/06/27 02:56:48;;;;;;;408.13;318.90;;;;;;;18.44;100.00;99264.63;5092186;28;20326;-83
2022/06/27 02:59:18;;;;;;;418.38;326.15;;;;;;;18.32;100.00;99260.34;5092073;28;20583;-82
2022/06/27 03:01:48;;;;;;;412.13;322.95;;;;;;;18.37;100.00;99247.16;5092084;28;20282;-83
2022/06/27 03:04:16;;;;;;;414.75;338.25;;;;;;;18.30;100.00;99241.41;5091749;28;20283;-82
2022/06/27 03:06:44;;;;;;;414.05;333.95;;;;;;;18.16;100.00;99260.09;5092881;28;20986;-83
2022/06/27 03:09:11;;;;;;;408.42;290.00;;;;;;;17.88;100.00;99251.81;5092452;28;20636;-83
2022/06/27 03:11:37;;;;;;;409.85;295.45;;;;;;;17.95;100.00;99244.78;5092498;28;20224;-82
2022/06/27 03:14:04;;;;;;;410.80;314.27;;;;;;;17.89;100.00;99253.53;5091849;28;20302;-83
2022/06/27 03:16:31;;;;;;;414.58;308.92;;;;;;;17.77;100.00;99254.63;5092371;28;20227;-83
2022/06/27 03:18:57;;;;;;;405.58;287.65;;;;;;;17.81;100.00;99258.81;5092083;28;20287;-82
2022/06/27 03:21:25;;;;;;;403.85;283.08;;;;;;;17.83;100.00;99278.63;5092381;28;20689;-83
2022/06/27 03:23:52;;;;;;;412.70;313.17;;;;;;;17.85;100.00;99252.09;5091873;28;21015;-83
2022/06/27 03:26:19;;;;;;;406.48;295.90;;;;;;;17.99;100.00;99229.00;5092028;28;20311;-82
2022/06/27 03:28:47;;;;;;;408.38;296.80;;;;;;;17.98;100.00;99239.06;5091964;28;20328;-83
2022/06/27 03:31:15;;;;;;;414.35;319.73;;;;;;;17.81;100.00;99234.28;5092098;28;20294;-82
2022/06/27 03:33:42;;;;;;;416.95;301.77;;;;;;;17.81;100.00;99228.84;5091774;28;20193;-84
2022/06/27 03:36:10;;;;;;;407.75;305.40;;;;;;;17.82;100.00;99220.56;5091744;28;20209;-83
2022/06/27 03:38:38;;;;;;;406.23;295.77;;;;;;;17.80;100.00;99233.44;5092152;28;20274;-83
2022/06/27 03:41:05;;;;;;;405.33;299.35;;;;;;;18.16;100.00;99241.00;5091333;28;20724;-82
2022/06/27 03:43:32;;;;;;;413.02;318.95;;;;;;;18.42;100.00;99235.78;5096622;28;20269;-82
2022/06/27 03:45:59;;;;;;;416.52;309.92;;;;;;;18.36;100.00;99230.94;5095808;28;20286;-83
2022/06/27 03:51:10;;;;;;;417.33;334.35;;;;;;;18.06;100.00;99225.53;5095379;28;20891;-82
2022/06/27 03:53:38;;;;;;;411.23;318.02;;;;;;;18.15;100.00;99212.06;5095985;28;20226;-82
2022/06/27 03:56:05;;;;;;;411.08;311.85;;;;;;;18.04;100.00;99224.81;5095438;28;20768;-82
2022/06/27 03:58:32;;;;;;;415.00;317.42;;;;;;;18.08;100.00;99228.13;5095771;28;20644;-82
2022/06/27 04:01:00;;;;;;;406.67;305.58;;;;;;;18.14;100.00;99219.38;5095459;28;20226;-83
2022/06/27 04:03:27;;;;;;;412.92;321.30;;;;;;;18.02;100.00;99220.53;5095114;28;20198;-82
2022/06/27 04:05:54;;;;;;;413.45;327.85;;;;;;;18.06;100.00;99231.00;5094413;28;20286;-83
2022/06/27 04:08:20;;;;;;;423.52;327.63;;;;;;;18.13;100.00;99231.28;5095241;28;20282;-82
2022/06/27 04:10:48;;;;;;;412.83;323.88;;;;;;;18.09;100.00;99222.53;5095350;28;20227;-82
2022/06/27 04:13:15;;;;;;;404.75;297.58;;;;;;;17.98;100.00;99239.06;5094751;28;20193;-82
2022/06/27 04:15:42;;;;;;;413.48;324.38;;;;;;;18.02;100.00;99247.78;5094991;28;20708;-83
2022/06/27 04:18:08;;;;;;;411.25;308.15;;;;;;;18.06;100.00;99238.31;5094666;28;20622;-83
2022/06/27 04:20:35;;;;;;;410.08;312.60;;;;;;;18.02;100.00;99237.75;5094524;28;20286;-82
2022/06/27 04:23:02;;;;;;;403.83;297.58;;;;;;;17.88;100.00;99232.75;5095538;28;20276;-83
2022/06/27 04:25:29;;;;;;;414.65;324.25;;;;;;;17.89;100.00;99235.31;5094594;28;20302;-82
2022/06/27 04:27:56;;;;;;;412.40;314.20;;;;;;;17.89;100.00;99226.31;5095058;28;20613;-81
2022/06/27 04:30:24;;;;;;;407.70;296.85;;;;;;;18.04;100.00;99223.97;5094372;28;20300;-82
2022/06/27 04:32:51;;;;;;;408.20;301.83;;;;;;;18.00;100.00;99217.97;5094518;28;20190;-81
2022/06/27 04:35:18;;;;;;;417.98;329.35;;;;;;;17.96;100.00;99232.03;5094135;28;20297;-81
2022/06/27 04:37:45;;;;;;;410.98;302.85;;;;;;;18.50;100.00;99244.09;5094177;28;20273;-82
2022/06/27 04:40:12;;;;;;;409.55;315.67;;;;;;;18.61;100.00;99262.13;5094753;28;20264;-81
2022/06/27 04:42:39;;;;;;;418.70;340.40;;;;;;;18.64;100.00;99256.41;5094100;28;20279;-81
2022/06/27 04:45:11;;;;;;;419.15;339.05;;;;;;;18.82;100.00;99246.44;5094086;28;20273;-82
2022/06/27 04:47:38;;;;;;;419.05;326.13;;;;;;;18.93;100.00;99227.16;5094236;28;20184;-81
2022/06/27 04:50:08;;;;;;;415.20;330.15;;;;;;;18.99;100.00;99220.22;5093738;28;20306;-83
2022/06/27 04:52:34;;;;;;;421.48;334.35;;;;;;;19.16;100.00;99222.13;5093872;28;20546;-82
2022/06/27 04:55:02;;;;;;;425.95;344.13;;;;;;;19.22;100.00;99223.41;5093502;28;20325;-82
2022/06/27 04:57:28;;;;;;;413.67;335.60;;;;;;;18.90;100.00;99246.56;5093781;28;20188;-82
2022/06/27 04:59:55;;;;;;;417.65;337.10;;;;;;;18.88;100.00;99256.75;5094493;28;20208;-82
2022/06/27 05:02:23;;;;;;;417.10;337.88;;;;;;;18.81;100.00;99276.59;5088047;28;20279;-82
2022/06/27 05:04:50;;;;;;;420.80;352.17;;;;;;;19.20;100.00;99280.00;5089243;28;20282;-83
2022/06/27 05:07:16;;;;;;;422.30;352.45;;;;;;;19.30;100.00;99278.06;5093615;28;20241;-83
2022/06/27 05:09:45;;;;;;;430.55;366.15;;;;;;;19.17;100.00;99272.97;5093357;28;20302;-82
2022/06/27 05:12:12;;;;;;;424.92;357.42;;;;;;;19.01;100.00;99278.22;5094259;28;20583;-82
2022/06/27 05:14:38;;;;;;;433.80;368.15;;;;;;;19.27;100.00;99269.34;5093419;28;20290;-84
2022/06/27 05:17:05;;;;;;;429.98;375.88;;;;;;;19.44;100.00;99248.53;5093791;28;20721;-83
2022/06/27 05:19:33;;;;;;;427.83;377.92;;;;;;;19.50;100.00;99243.31;5093028;28;20207;-82
2022/06/27 05:22:01;;;;;;;431.83;380.38;;;;;;;19.50;100.00;99254.22;5093273;28;20265;-83
2022/06/27 05:24:28;;;;;;;420.52;355.02;;;;;;;19.59;100.00;99261.47;5094380;28;20617;-82
2022/06/27 05:26:55;;;;;;;426.77;375.02;;;;;;;19.76;100.00;99264.41;5093242;28;20287;-83
2022/06/27 05:29:22;;;;;;;436.98;384.00;;;;;;;19.56;100.00;99261.81;5094504;28;20652;-84
2022/06/27 05:31:49;;;;;;;438.95;390.65;;;;;;;19.78;100.00;99265.09;5094429;28;20217;-82
2022/06/27 05:34:16;;;;;;;429.58;369.73;;;;;;;19.94;100.00;99268.00;5091669;28;20208;-82
2022/06/27 05:36:44;;;;;;;431.45;381.83;;;;;;;20.36;100.00;99272.78;5093904;28;20204;-84
2022/06/27 05:39:11;;;;;;;434.33;382.13;;;;;;;20.15;100.00;99272.28;5094179;28;20274;-83
2022/06/27 05:41:37;;;;;;;459.08;410.58;;;;;;;20.12;100.00;99270.69;5094041;28;20259;-84
2022/06/27 05:44:05;;;;;;;429.55;379.65;;;;;;;20.08;100.00;99277.53;5094170;28;20275;-84
2022/06/27 05:46:32;;;;;;;426.42;378.70;;;;;;;19.86;100.00;99264.34;5092434;28;20280;-82
2022/06/27 05:49:00;;;;;;;427.85;377.33;;;;;;;19.78;100.00;99256.91;5092679;28;20191;-83
2022/06/27 05:51:28;;;;;;;442.83;394.45;;;;;;;19.91;100.00;99246.44;5093530;28;20203;-84
2022/06/27 05:53:58;;;;;;;430.30;380.75;;;;;;;20.25;100.00;99250.31;5095630;28;20701;-83
2022/06/27 05:56:26;;;;;;;452.50;404.10;;;;;;;20.64;100.00;99244.44;5098089;28;20265;-80
2022/06/27 05:58:55;;;;;;;475.85;426.45;;;;;;;20.81;100.00;99243.50;5093501;28;20181;-81
2022/06/27 06:01:21;;;;;;;449.05;401.45;;;;;;;20.84;100.00;99256.84;5093518;28;20195;-82
2022/06/27 06:03:48;;;;;;;448.20;400.35;;;;;;;21.13;100.00;99233.72;5092756;28;20286;-84
2022/06/27 06:06:15;;;;;;;447.27;399.48;;;;;;;21.13;100.00;99233.72;5093854;28;20637;-82
2022/06/27 06:08:43;;;;;;;458.55;410.38;;;;;;;21.38;100.00;99227.28;5092452;28;20184;-82
2022/06/27 06:11:13;;;;;;;491.13;442.40;;;;;;;21.60;100.00;99219.50;5092073;28;20220;-81
2022/06/27 06:13:41;;;;;;;483.58;434.98;;;;;;;21.44;100.00;99226.66;5092709;28;20530;-87
2022/06/27 06:16:10;;;;;;;493.83;444.88;;;;;;;21.11;100.00;99253.03;5093126;28;20188;-84
2022/06/27 06:18:37;;;;;;;477.17;428.63;;;;;;;20.66;100.00;99280.69;5092407;28;20211;-83
2022/06/27 06:21:04;;;;;;;484.08;435.38;;;;;;;20.90;100.00;99282.72;5086005;28;20216;-82
2022/06/27 06:23:32;;;;;;;484.80;436.13;;;;;;;21.20;100.00;99284.88;5093217;28;20296;-85
2022/06/27 06:25:58;;;;;;;491.20;442.58;;;;;;;21.24;100.00;99282.69;5091684;28;20188;-85
2022/06/27 06:28:30;;;;;;;469.00;420.92;;;;;;;21.32;100.00;99279.97;5092179;28;20203;-84
2022/06/27 06:30:57;;;;;;;487.15;438.33;;;;;;;21.35;100.00;99271.44;5092397;28;20223;-82
2022/06/27 06:33:24;;;;;;;491.23;442.48;;;;;;;21.22;100.00;99265.56;5092251;28;20184;-83
2022/06/27 06:35:50;;;;;;;502.13;453.30;;;;;;;21.38;100.00;99260.16;5091572;28;20514;-83
2022/06/27 06:38:18;;;;;;;487.10;438.00;;;;;;;21.47;100.00;99255.56;5091849;28;20194;-83
2022/06/27 06:40:44;;;;;;;501.83;452.52;;;;;;;21.89;100.00;99256.50;5080694;28;20224;-85
2022/06/27 06:43:11;;;;;;;508.05;458.50;;;;;;;21.81;100.00;99263.69;5071707;28;20193;-82
2022/06/27 06:45:39;;;;;;;493.42;444.75;;;;;;;21.84;100.00;99260.63;5080147;28;20258;-82
2022/06/27 06:48:08;;;;;;;518.93;469.77;;;;;;;21.81;100.00;99251.88;5091968;28;20287;-82
2022/06/27 06:50:35;;;;;;;521.67;472.37;;;;;;;21.69;100.00;99250.50;5092049;28;20496;-86
2022/06/27 06:53:02;;;;;;;534.33;484.77;;;;;;;21.74;100.00;99254.44;5084032;28;20508;-82
2022/06/27 06:55:29;;;;;;;525.17;476.23;;;;;;;21.98;100.00;99248.13;5088237;28;20473;-83
2022/06/27 06:57:56;;;;;;;508.63;459.67;;;;;;;21.90;100.00;99252.75;5091628;28;20423;-86
2022/06/27 07:00:23;;;;;;;510.60;461.73;;;;;;;21.92;100.00;99267.13;5080710;28;20478;-84
2022/06/27 07:02:52;;;;;;;494.75;446.30;;;;;;;21.92;100.00;99283.56;5071893;28;20517;-84
2022/06/27 07:05:19;;;;;;;500.05;451.38;;;;;;;21.52;100.00;99280.56;5072788;28;20813;-82
2022/06/27 07:07:47;;;;;;;504.60;456.15;;;;;;;20.99;100.00;99274.38;5092032;28;20191;-82
2022/06/27 07:10:14;;;;;;;479.55;431.55;;;;;;;21.09;100.00;99270.66;5091342;28;20215;-84
2022/06/27 07:12:42;;;;;;;503.20;454.48;;;;;;;21.15;100.00;99259.06;5092216;28;20680;-84
2022/06/27 07:15:10;;;;;;;490.35;442.08;;;;;;;21.05;100.00;99264.63;5091670;28;20200;-83
2022/06/27 07:17:41;;;;;;;487.80;439.58;;;;;;;20.95;100.00;99275.72;5094962;28;20203;-82
2022/06/27 07:20:11;;;;;;;465.08;417.63;;;;;;;20.94;100.00;99273.13;5097800;28;20580;-85
2022/06/27 07:22:39;;;;;;;484.23;435.75;;;;;;;20.85;100.00;99296.88;5095996;28;20625;-84
2022/06/27 07:25:06;;;;;;;487.65;439.02;;;;;;;21.31;100.00;99322.06;5096983;28;20196;-86
2022/06/27 07:27:34;;;;;;;487.47;438.97;;;;;;;21.64;100.00;99312.13;5095937;28;20608;-84
2022/06/27 07:30:01;;;;;;;467.63;419.75;;;;;;;21.52;100.00;99293.41;5099374;28;20449;-84
2022/06/27 07:32:29;;;;;;;506.40;457.70;;;;;;;21.62;100.00;99305.09;5096161;28;20706;-83
2022/06/27 07:34:57;;;;;;;489.90;441.30;;;;;;;22.23;100.00;99331.25;5096562;28;20614;-85
2022/06/27 07:37:25;;;;;;;495.97;447.37;;;;;;;21.80;100.00;99335.13;5095387;28;20211;-83
2022/06/27 07:39:53;;;;;;;497.05;448.38;;;;;;;21.63;100.00;99324.09;5096051;28;20512;-85
2022/06/27 07:42:19;;;;;;;488.03;439.93;;;;;;;21.59;100.00;99319.97;5096181;28;20576;-86
2022/06/27 07:44:46;;;;;;;501.30;452.10;;;;;;;21.38;100.00;99330.50;5096506;28;20506;-87
2022/06/27 07:47:13;;;;;;;505.70;456.45;;;;;;;21.56;100.00;99346.84;5095869;28;20512;-85
2022/06/27 07:49:39;;;;;;;502.40;453.87;;;;;;;21.18;100.00;99362.75;5094653;28;20191;-88
2022/06/27 07:52:07;;;;;;;469.17;421.65;;;;;;;21.01;100.00;99381.81;5109011;28;20515;-88
2022/06/27 07:54:35;;;;;;;482.87;434.27;;;;;;;21.34;100.00;99383.88;5115478;28;20194;-88
2022/06/27 07:57:02;;;;;;;480.67;432.33;;;;;;;20.81;100.00;99380.31;5109725;28;20830;-85
2022/06/27 07:59:29;;;;;;;471.98;423.80;;;;;;;20.74;100.00;99371.03;5096930;28;20243;-87
2022/06/27 08:01:56;;;;;;;472.67;424.50;;;;;;;20.66;100.00;99369.06;5096619;28;20176;-87
2022/06/27 08:04:23;;;;;;;483.63;435.48;;;;;;;20.43;100.00;99368.69;5096967;28;20293;-87
2022/06/27 08:06:50;;;;;;;474.35;426.02;;;;;;;20.47;100.00;99372.84;5096153;28;20184;-86
2022/06/27 08:09:21;;;;;;;454.63;407.35;;;;;;;20.67;100.00;99359.88;5097315;28;20216;-87
2022/06/27 08:11:49;;;;;;;477.48;429.65;;;;;;;20.27;100.00;99355.75;5095986;28;20204;-87
2022/06/27 08:14:17;;;;;;;448.83;401.30;;;;;;;20.14;100.00;99363.47;5095336;28;20310;-85
2022/06/27 08:16:46;;;;;;;447.00;399.52;;;;;;;20.36;100.00;99373.09;5095710;28;20210;-85
2022/06/27 08:19:15;;;;;;;457.13;409.40;;;;;;;20.35;100.00;99382.28;5096008;28;20180;-85
2022/06/27 08:21:44;;;;;;;446.15;398.80;;;;;;;20.49;100.00;99379.00;5095251;28;20184;-85
2022/06/27 08:24:16;;;;;;;467.38;419.67;;;;;;;20.54;100.00;99398.53;5095145;28;20195;-85
2022/06/27 08:26:45;;;;;;;465.63;418.13;;;;;;;20.60;100.00;99395.22;5094740;28;20214;-86
2022/06/27 08:29:13;;;;;;;462.00;414.35;;;;;;;20.98;100.00;99394.94;5095094;28;20599;-85
2022/06/27 08:31:41;;;;;;;462.15;415.13;;;;;;;20.97;100.00;99396.84;5094402;28;20305;-88
2022/06/27 08:34:09;;;;;;;483.13;434.90;;;;;;;20.66;100.00;99406.53;5096560;28;20188;-84
2022/06/27 08:36:37;;;;;;;443.63;395.73;;;;;;;20.45;100.00;99404.09;5095016;28;20275;-85
2022/06/27 08:39:07;;;;;;;448.83;401.48;;;;;;;20.12;100.00;99407.34;5094627;28;20585;-87
2022/06/27 08:41:35;;;;;;;475.45;427.33;;;;;;;20.17;100.00;99409.63;5094386;28;20180;-82
2022/06/27 08:44:01;;;;;;;455.95;408.40;;;;;;;20.02;100.00;99425.72;5093767;28;20216;-87
2022/06/27 08:46:30;;;;;;;448.88;401.42;;;;;;;19.81;100.00;99422.38;5094272;28;20254;-85
2022/06/27 08:48:57;;;;;;;446.13;398.60;;;;;;;19.49;100.00;99435.47;5093651;28;20220;-85
2022/06/27 08:51:25;;;;;;;431.02;383.70;;;;;;;19.49;100.00;99446.38;5094467;28;20250;-85
2022/06/27 08:53:54;;;;;;;427.98;380.95;;;;;;;19.45;100.00;99449.56;5094400;28;20628;-84
2022/06/27 08:56:22;;;;;;;421.88;365.38;;;;;;;19.45;100.00;99455.03;5093458;28;20235;-85
2022/06/27 08:58:50;;;;;;;416.55;360.00;;;;;;;19.71;100.00;99450.59;5093966;28;20318;-85
2022/06/27 09:01:19;;;;;;;429.50;382.73;;;;;;;19.87;100.00;99454.56;5094318;28;21056;-87
2022/06/27 09:03:58;;;;;;;443.08;395.67;;;;;;;19.95;100.00;99471.06;5095795;28;20546;-88
2022/06/27 09:06:26;;;;;;;436.92;389.98;;;;;;;19.80;100.00;99465.22;5093631;28;20183;-85
2022/06/27 09:08:55;;;;;;;422.50;372.88;;;;;;;19.63;100.00;99464.16;5094405;28;20223;-85
2022/06/27 09:11:27;;;;;;;421.38;374.35;;;;;;;19.93;100.00;99471.19;5093792;28;20669;-85
2022/06/27 09:13:54;;;;;;;456.55;408.45;;;;;;;20.17;100.00;99465.16;5095242;28;20271;-85
2022/06/27 09:16:21;;;;;;;430.83;384.27;;;;;;;20.19;100.00;99481.41;5093647;28;20235;-84
2022/06/27 09:18:48;;;;;;;424.77;378.25;;;;;;;20.02;100.00;99487.72;5095084;28;20546;-88
2022/06/27 09:21:17;;;;;;;438.70;391.80;;;;;;;20.12;100.00;99470.22;5094337;28;20239;-84
2022/06/27 09:23:47;;;;;;;454.48;407.05;;;;;;;20.08;100.00;99484.34;5093879;28;20196;-87
2022/06/27 09:26:16;;;;;;;440.88;393.80;;;;;;;19.95;100.00;99485.56;5094096;28;20641;-86
2022/06/27 09:28:54;;;;;;;419.77;371.38;;;;;;;19.56;100.00;99493.06;5093777;28;20204;-86
2022/06/27 09:31:36;;;;;;;432.20;386.25;;;;;;;19.29;100.00;99477.50;5093900;28;20215;-86
2022/06/27 09:34:08;;;;;;;438.30;391.38;;;;;;;19.78;100.00;99467.25;5094363;28;20195;-87
2022/06/27 09:36:39;;;;;;;416.60;364.50;;;;;;;20.09;100.00;99462.34;5093941;28;20226;-87
2022/06/27 09:39:06;;;;;;;420.20;373.67;;;;;;;20.22;100.00;99469.31;5093186;28;20544;-87
2022/06/27 09:41:35;;;;;;;433.45;386.48;;;;;;;20.19;100.00;99474.09;5094537;28;20199;-85
2022/06/27 09:44:06;;;;;;;444.23;396.98;;;;;;;20.49;100.00;99472.00;5094961;28;20323;-84
2022/06/27 09:46:42;;;;;;;438.52;391.48;;;;;;;20.70;100.00;99465.38;5094171;28;20602;-83
2022/06/27 09:49:14;;;;;;;424.40;377.95;;;;;;;20.76;100.00;99467.50;5092991;28;20194;-85
2022/06/27 09:51:43;;;;;;;462.75;415.08;;;;;;;21.27;100.00;99460.31;5092883;28;20568;-88
2022/06/27 09:54:11;;;;;;;455.55;408.08;;;;;;;21.75;100.00;99472.59;5094039;28;20188;-86
2022/06/27 09:56:41;;;;;;;455.70;408.48;;;;;;;21.44;100.00;99477.78;5093121;28;20223;-86
2022/06/27 09:59:10;;;;;;;489.25;440.88;;;;;;;21.69;100.00;99478.75;5093881;28;20537;-86
2022/06/27 10:01:38;;;;;;;503.77;455.03;;;;;;;21.68;100.00;99481.66;5093232;28;20601;-85
2022/06/27 10:04:05;;;;;;;515.93;466.87;;;;;;;21.90;100.00;99485.69;5092383;28;20499;-85
2022/06/27 10:06:33;;;;;;;523.00;473.83;;;;;;;21.85;100.00;99481.56;5091984;28;20517;-86
2022/06/27 10:09:01;;;;;;;491.17;442.80;;;;;;;21.58;100.00;99485.38;5092679;28;20491;-86
2022/06/27 10:11:27;;;;;;;520.10;471.10;;;;;;;21.50;100.00;99488.06;5094188;28;20513;-86
2022/06/27 10:14:16;;;;;;;486.90;438.40;;;;;;;20.48;100.00;99510.44;5092599;28;20466;-86
2022/06/27 10:16:54;;;;;;;486.80;438.80;;;;;;;19.98;100.00;99528.13;5082649;28;20192;-86
2022/06/27 10:19:21;;;;;;;459.02;411.23;;;;;;;20.02;100.00;99504.09;5092483;28;20275;-86
2022/06/27 10:21:49;;;;;;;452.73;405.52;;;;;;;20.28;100.00;99485.94;5092828;28;20188;-86
2022/06/27 10:24:34;;;;;;;470.67;422.98;;;;;;;20.53;100.00;99500.75;5082472;28;20220;-86
2022/06/27 10:27:04;;;;;;;464.77;416.98;;;;;;;20.53;100.00;99492.56;5072712;28;20609;-86
2022/06/27 10:29:48;;;;;;;427.48;380.80;;;;;;;21.08;100.00;99472.34;5071598;28;20275;-86
2022/06/27 10:32:44;;;;;;;461.42;413.63;;;;;;;21.53;99.89;99470.47;5072059;28;20266;-86
2022/06/27 10:35:15;;;;;;;483.38;435.25;;;;;;;22.60;88.32;99471.69;5072236;28;20201;-86
2022/06/27 10:37:46;;;;;;;507.17;458.40;;;;;;;22.84;84.23;99471.72;5073371;28;20573;-86
2022/06/27 10:40:44;;;;;;;497.15;448.67;;;;;;;22.55;87.16;99476.84;5071524;28;20530;-87
2022/06/27 10:43:38;;;;;;;481.70;433.73;;;;;;;22.15;88.60;99503.09;5037613;28;20528;-87
2022/06/27 10:46:42;;;;;;;522.60;473.60;;;;;;;22.13;90.12;99500.53;5072389;28;20466;-83
2022/06/27 10:49:23;;;;;;;481.07;433.10;;;;;;;21.78;94.27;99493.38;5071932;28;20423;-85
2022/06/27 10:51:51;;;;;;;497.52;449.08;;;;;;;21.92;94.31;99491.88;5070850;28;20508;-85
2022/06/27 10:54:17;;;;;;;511.20;462.43;;;;;;;21.84;94.02;99484.47;5072223;28;20275;-86
2022/06/27 10:56:48;;;;;;;521.43;472.37;;;;;;;21.47;99.70;99503.97;5071854;28;20505;-88
2022/06/27 11:00:00;;;;;;;512.65;463.58;;;;;;;21.48;100.00;99486.50;5073359;28;20499;-88
2022/06/27 11:02:29;;;;;;;491.73;443.17;;;;;;;21.04;100.00;99490.13;5072113;28;20267;-85
2022/06/27 11:04:57;;;;;;;490.20;441.88;;;;;;;20.66;100.00;99492.19;5071854;28;20205;-85